| time (UTC) | temp C | wind direction | speed KPH | gust KPH | rain 1hr cm | rain 24hr cm | rain mn cm | humidity % | barometer mb |
| 20260507110054 | 11 | 317 | 4.8 | 16.1 | 0.00 | 0.00 | 0.00 | 76 | 1020.8 |
| 20260507104543 | 11 | 344 | 1.6 | 9.7 | 0.00 | 0.00 | 0.00 | 76 | 1020.9 |
| 20260507103042 | 11 | 327 | 4.8 | 14.5 | 0.00 | 0.00 | 0.00 | 76 | 1020.9 |
| 20260507101550 | 12 | 300 | 4.8 | 16.1 | 0.00 | 0.00 | 0.00 | 77 | 1021.0 |
| 20260507100045 | 12 | 284 | 4.8 | 14.5 | 0.00 | 0.00 | 0.00 | 77 | 1021.1 |
| 20260507094547 | 12 | 297 | 8.0 | 17.7 | 0.00 | 0.00 | 0.00 | 77 | 1021.2 |
| 20260507093046 | 12 | 290 | 8.0 | 14.5 | 0.00 | 0.00 | 0.00 | 78 | 1021.3 |
| 20260507091542 | 12 | 288 | 4.8 | 9.7 | 0.00 | 0.00 | 0.00 | 77 | 1021.4 |
| 20260507090047 | 12 | 323 | 4.8 | 12.9 | 0.00 | 0.00 | 0.00 | 77 | 1021.3 |
| 20260507084547 | 12 | 284 | 1.6 | 11.3 | 0.00 | 0.00 | 0.00 | 78 | 1021.4 |
| 20260507083043 | 12 | 316 | 3.2 | 8.0 | 0.00 | 0.00 | 0.00 | 78 | 1021.4 |
| 20260507081542 | 12 | 287 | 3.2 | 12.9 | 0.00 | 0.00 | 0.00 | 78 | 1021.5 |
| 20260507080048 | 12 | 350 | 3.2 | 12.9 | 0.00 | 0.00 | 0.00 | 78 | 1021.5 |
| 20260507074545 | 12 | 299 | 8.0 | 16.1 | 0.00 | 0.00 | 0.00 | 78 | 1021.5 |
| 20260507073044 | 12 | 298 | 3.2 | 12.9 | 0.00 | 0.00 | 0.00 | 78 | 1021.5 |
| 20260507071543 | 12 | 294 | 3.2 | 8.0 | 0.00 | 0.00 | 0.00 | 78 | 1021.4 |
| 20260507070044 | 12 | 292 | 3.2 | 11.3 | 0.00 | 0.00 | 0.00 | 77 | 1021.4 |
| 20260507064541 | 12 | 292 | 3.2 | 12.9 | 0.00 | 0.00 | 0.00 | 77 | 1021.5 |
| 20260507063048 | 12 | 313 | 6.4 | 16.1 | 0.00 | 0.00 | 0.00 | 77 | 1021.5 |
| 20260507061544 | 13 | 327 | 6.4 | 17.7 | 0.00 | 0.00 | 0.00 | 77 | 1021.5 |
| 20260507060052 | 13 | 298 | 8.0 | 17.7 | 0.00 | 0.00 | 0.00 | 77 | 1021.5 |
| 20260507054548 | 13 | 288 | 8.0 | 17.7 | 0.00 | 0.00 | 0.00 | 76 | 1021.5 |
| 20260507053042 | 13 | 306 | 8.0 | 17.7 | 0.00 | 0.00 | 0.00 | 75 | 1021.4 |
| 20260507051549 | 13 | 316 | 9.7 | 16.1 | 0.00 | 0.00 | 0.00 | 75 | 1021.4 |
| 20260507050046 | 13 | 274 | 6.4 | 14.5 | 0.00 | 0.00 | 0.00 | 75 | 1021.5 |
| 20260507044558 | 14 | 334 | 6.4 | 14.5 | 0.00 | 0.00 | 0.00 | 75 | 1021.5 |
| 20260507043044 | 14 | 308 | 3.2 | 16.1 | 0.00 | 0.00 | 0.00 | 75 | 1021.3 |
| 20260507041543 | 15 | 311 | 9.7 | 19.3 | 0.00 | 0.00 | 0.00 | 74 | 1021.2 |
| 20260507040039 | 15 | 313 | 9.7 | 22.5 | 0.00 | 0.00 | 0.00 | 74 | 1020.9 |
| 20260507034545 | 15 | 285 | 8.0 | 19.3 | 0.00 | 0.00 | 0.00 | 74 | 1020.7 |
| 20260507033044 | 15 | 333 | 9.7 | 17.7 | 0.00 | 0.00 | 0.00 | 74 | 1020.5 |
| 20260507031543 | 16 | 289 | 9.7 | 19.3 | 0.00 | 0.00 | 0.00 | 73 | 1020.3 |
| 20260507030045 | 16 | 289 | 9.7 | 17.7 | 0.00 | 0.00 | 0.00 | 72 | 1020.2 |
| 20260507024545 | 17 | 286 | 6.4 | 20.9 | 0.00 | 0.00 | 0.00 | 71 | 1019.9 |
| 20260507023044 | 17 | 290 | 8.0 | 17.7 | 0.00 | 0.00 | 0.00 | 69 | 1020.0 |
| 20260507021542 | 18 | 333 | 6.4 | 17.7 | 0.00 | 0.00 | 0.00 | 68 | 1020.0 |
| 20260507020051 | 18 | 323 | 8.0 | 19.3 | 0.00 | 0.00 | 0.00 | 68 | 1020.1 |
| 20260507014553 | 18 | 308 | 11.3 | 19.3 | 0.00 | 0.00 | 0.00 | 67 | 1020.2 |
| 20260507013056 | 18 | 283 | 9.7 | 19.3 | 0.00 | 0.00 | 0.00 | 67 | 1020.0 |
| 20260507011544 | 18 | 0 | 0.0 | 3.2 | 0.00 | 0.00 | 0.00 | 71 | 1020.0 |
| 20260507010045 | 19 | 336 | 1.6 | 12.9 | 0.00 | 0.00 | 0.00 | 72 | 1019.9 |
| 20260507004543 | 19 | 0 | 0.0 | 3.2 | 0.00 | 0.00 | 0.00 | 71 | 1020.0 |
| 20260507003045 | 19 | 0 | 0.0 | 6.4 | 0.00 | 0.00 | 0.00 | 69 | 1020.0 |
| 20260507001544 | 19 | 0 | 0.0 | 3.2 | 0.00 | 0.00 | 0.00 | 68 | 1019.9 |
| 20260507000048 | 19 | 0 | 0.0 | 8.0 | 0.00 | 0.00 | 0.00 | 69 | 1019.9 |
| 20260506234542 | 20 | 0 | 0.0 | 4.8 | 0.00 | 0.00 | 0.00 | 65 | 1019.9 |
| 20260506233045 | 20 | 0 | 0.0 | 1.6 | 0.00 | 0.00 | 0.00 | 66 | 1019.9 |
| 20260506231545 | 20 | 0 | 0.0 | 1.6 | 0.00 | 0.00 | 0.00 | 65 | 1019.9 |
| 20260506230044 | 20 | 0 | 0.0 | 3.2 | 0.00 | 0.00 | 0.00 | 66 | 1020.1 |
| 20260506224601 | 20 | 318 | 0.0 | 3.2 | 0.00 | 0.00 | 0.00 | 67 | 1020.3 |
| 20260506223050 | 20 | 0 | 1.6 | 9.7 | 0.00 | 0.00 | 0.00 | 63 | 1020.4 |
| 20260506221548 | 20 | 0 | 0.0 | 6.4 | 0.00 | 0.00 | 0.00 | 67 | 1020.6 |
| 20260506220048 | 20 | 0 | 1.6 | 8.0 | 0.00 | 0.00 | 0.00 | 67 | 1020.6 |
| 20260506214601 | 19 | 319 | 3.2 | 9.7 | 0.00 | 0.00 | 0.00 | 68 | 1020.5 |
| 20260506213048 | 18 | 0 | 1.6 | 8.0 | 0.00 | 0.00 | 0.00 | 75 | 1020.7 |
| 20260506211541 | 17 | 0 | 0.0 | 4.8 | 0.00 | 0.00 | 0.00 | 76 | 1020.9 |
| 20260506210052 | 17 | 0 | 0.0 | 1.6 | 0.00 | 0.00 | 0.00 | 75 | 1020.9 |
| 20260506204549 | 17 | 0 | 0.0 | 3.2 | 0.00 | 0.00 | 0.00 | 77 | 1020.9 |
| 20260506203047 | 16 | 0 | 0.0 | 1.6 | 0.00 | 0.00 | 0.00 | 78 | 1020.8 |
| 20260506201545 | 16 | 0 | 0.0 | 3.2 | 0.00 | 0.00 | 0.00 | 79 | 1021.0 |
| 20260506200049 | 16 | 0 | 0.0 | 4.8 | 0.00 | 0.00 | 0.00 | 78 | 1021.0 |
| 20260506194600 | 16 | 0 | 1.6 | 6.4 | 0.00 | 0.00 | 0.00 | 77 | 1021.2 |
| 20260506193043 | 16 | 298 | 0.0 | 4.8 | 0.00 | 0.00 | 0.00 | 77 | 1021.2 |
| 20260506191543 | 16 | 0 | 1.6 | 4.8 | 0.00 | 0.00 | 0.00 | 75 | 1021.1 |
| 20260506190044 | 16 | 298 | 1.6 | 6.4 | 0.00 | 0.00 | 0.00 | 77 | 1021.1 |
| 20260506184540 | 16 | 0 | 3.2 | 11.3 | 0.00 | 0.00 | 0.00 | 77 | 1021.0 |
| 20260506183043 | 16 | 299 | 3.2 | 11.3 | 0.00 | 0.00 | 0.00 | 77 | 1021.1 |
| 20260506181548 | 16 | 0 | 0.0 | 4.8 | 0.00 | 0.00 | 0.00 | 78 | 1021.1 |
| 20260506180049 | 16 | 301 | 0.0 | 8.0 | 0.00 | 0.00 | 0.00 | 78 | 1021.1 |
| 20260506174542 | 16 | 0 | 0.0 | 4.8 | 0.00 | 0.00 | 0.00 | 77 | 1021.0 |
| 20260506173050 | 15 | 333 | 0.0 | 4.8 | 0.00 | 0.00 | 0.00 | 78 | 1020.9 |
| 20260506171554 | 15 | 334 | 0.0 | 4.8 | 0.00 | 0.00 | 0.00 | 80 | 1020.9 |
| 20260506170049 | 15 | 334 | 1.6 | 9.7 | 0.00 | 0.00 | 0.00 | 81 | 1020.9 |
| 20260506164544 | 15 | 0 | 0.0 | 6.4 | 0.00 | 0.00 | 0.00 | 82 | 1020.9 |
| 20260506163049 | 14 | 0 | 0.0 | 4.8 | 0.00 | 0.00 | 0.00 | 83 | 1020.7 |
| 20260506161553 | 13 | 0 | 0.0 | 4.8 | 0.00 | 0.00 | 0.00 | 84 | 1020.6 |
| 20260506160049 | 13 | 0 | 0.0 | 3.2 | 0.00 | 0.00 | 0.00 | 84 | 1020.3 |
| 20260506154607 | 13 | 0 | 0.0 | 11.3 | 0.00 | 0.00 | 0.00 | 84 | 1020.3 |
| 20260506153043 | 13 | 302 | 1.6 | 8.0 | 0.00 | 0.00 | 0.00 | 85 | 1020.9 |
| 20260506151543 | 13 | 279 | 6.4 | 14.5 | 0.00 | 0.00 | 0.00 | 85 | 1021.0 |
| 20260506150047 | 13 | 289 | 3.2 | 12.9 | 0.00 | 0.00 | 0.00 | 85 | 1020.7 |
| 20260506144547 | 13 | 298 | 6.4 | 14.5 | 0.00 | 0.00 | 0.00 | 86 | 1020.7 |
| 20260506143045 | 13 | 0 | 1.6 | 6.4 | 0.00 | 0.00 | 0.00 | 86 | 1020.2 |
| 20260506141545 | 13 | 314 | 0.0 | 6.4 | 0.00 | 0.00 | 0.00 | 88 | 1020.1 |
| 20260506140055 | 13 | 0 | 0.0 | 1.6 | 0.00 | 0.00 | 0.00 | 88 | 1020.2 |
| 20260506134543 | 13 | 0 | 0.0 | 0.0 | 0.00 | 0.00 | 0.00 | 87 | 1019.8 |
| 20260506133052 | 13 | 0 | 0.0 | 0.0 | 0.00 | 0.00 | 0.00 | 86 | 1019.7 |
| 20260506131544 | 13 | 0 | 0.0 | 0.0 | 0.00 | 0.00 | 0.00 | 86 | 1019.7 |
| 20260506130044 | 13 | 0 | 0.0 | 0.0 | 0.00 | 0.00 | 0.00 | 85 | 1019.5 |
| 20260506124543 | 13 | 313 | 0.0 | 4.8 | 0.00 | 0.00 | 0.00 | 85 | 1019.5 |
| 20260506123042 | 13 | 313 | 0.0 | 6.4 | 0.00 | 0.00 | 0.00 | 85 | 1019.5 |
| 20260506121545 | 13 | 313 | 3.2 | 6.4 | 0.00 | 0.00 | 0.00 | 85 | 1019.5 |
| 20260506120050 | 13 | 0 | 0.0 | 8.0 | 0.00 | 0.00 | 0.00 | 85 | 1019.3 |
| 20260506114543 | 13 | 321 | 3.2 | 8.0 | 0.00 | 0.00 | 0.00 | 84 | 1019.2 |
| 20260506113048 | 13 | 0 | 1.6 | 11.3 | 0.00 | 0.00 | 0.00 | 84 | 1019.1 |
| 20260506111543 | 13 | 286 | 1.6 | 11.3 | 0.00 | 0.00 | 0.00 | 84 | 1018.8 |